Time;durP1;ratioP1;P1;durP2;ratioP2;P2;SDS_P1;SDS_P2;PMS_P1;PMS_P2;Temp;Humidity;BMP_temperature;BMP_pressure;BME280_temperature;BME280_humidity;BME280_pressure;Samples;Min_cycle;Max_cycle;Signal;HPM_P1;HPM_P2
2022/01/25 00:09:17;;;;;;;54.15;40.22;;;5.50;99.90;;;;;;4989813;28;20069;-76
2022/01/25 00:28:16;;;;;;;60.75;42.35;;;5.50;99.90;;;;;;5067173;28;20051;-76
2022/01/25 00:30:57;;;;;;;57.95;41.58;;;5.50;99.90;;;;;;5079338;28;20039;-76
2022/01/25 00:33:23;;;;;;;56.55;41.95;;;5.50;99.90;;;;;;5079484;28;20142;-76
2022/01/25 00:35:48;;;;;;;55.00;42.13;;;5.50;99.90;;;;;;5074988;28;20663;-76
2022/01/25 00:38:14;;;;;;;64.38;44.58;;;5.50;99.90;;;;;;5060736;28;20036;-76
2022/01/25 00:40:40;;;;;;;58.50;42.15;;;5.50;99.90;;;;;;5072263;28;20024;-76
2022/01/25 00:43:05;;;;;;;61.35;43.08;;;5.50;99.90;;;;;;5079400;28;20029;-76
2022/01/25 00:45:31;;;;;;;55.58;42.00;;;5.50;99.90;;;;;;5075569;28;20394;-76
2022/01/25 00:47:57;;;;;;;57.08;41.40;;;5.40;99.90;;;;;;5078371;28;20038;-76
2022/01/25 00:50:23;;;;;;;56.63;41.70;;;5.50;99.90;;;;;;5057058;28;20032;-76
2022/01/25 00:55:15;;;;;;;57.15;39.92;;;5.50;99.90;;;;;;5079756;28;20047;-76
2022/01/25 00:57:41;;;;;;;55.92;40.40;;;5.50;99.90;;;;;;5077072;28;20035;-76
2022/01/25 01:00:09;;;;;;;57.38;42.13;;;5.50;99.90;;;;;;5063692;28;20024;-76
2022/01/25 01:02:35;;;;;;;53.63;39.80;;;5.50;99.90;;;;;;5076179;28;20025;-76
2022/01/25 01:05:01;;;;;;;55.33;41.15;;;5.50;99.90;;;;;;5072846;28;20058;-76
2022/01/25 01:07:27;;;;;;;58.63;42.20;;;5.60;99.90;;;;;;5075629;28;20118;-76
2022/01/25 01:09:54;;;;;;;53.88;40.30;;;5.50;99.90;;;;;;5063714;28;20173;-76
2022/01/25 01:44:38;;;;;;;51.58;37.30;;;5.40;99.90;;;;;;5072244;28;20064;-76
2022/01/25 01:47:12;;;;;;;55.05;38.70;;;5.50;99.90;;;;;;5067596;28;20031;-76
2022/01/25 01:49:43;;;;;;;49.20;37.90;;;5.40;99.90;;;;;;5086750;28;20043;-76
2022/01/25 01:52:10;;;;;;;48.30;36.65;;;5.40;99.90;;;;;;5083321;28;20067;-76
2022/01/25 01:54:36;;;;;;;46.35;36.45;;;5.40;99.90;;;;;;5079259;28;20028;-76
2022/01/25 01:57:04;;;;;;;46.95;37.08;;;5.40;99.90;;;;;;5059575;28;20158;-76
2022/01/25 01:59:30;;;;;;;52.10;35.80;;;5.40;99.90;;;;;;5078601;28;20499;-76
2022/01/25 02:01:56;;;;;;;49.20;36.25;;;5.40;99.90;;;;;;5075970;28;20090;-76
2022/01/25 02:04:22;;;;;;;51.83;37.28;;;5.40;99.90;;;;;;5075129;28;20604;-76
2022/01/25 02:06:47;;;;;;;48.38;36.40;;;5.40;99.90;;;;;;5077012;28;20024;-76
2022/01/25 02:09:14;;;;;;;49.90;35.78;;;5.40;99.90;;;;;;5072036;28;20032;-76
2022/01/25 02:11:40;;;;;;;51.70;35.60;;;5.40;99.90;;;;;;5059427;28;20517;-76
2022/01/25 02:14:09;;;;;;;53.85;37.92;;;5.40;99.90;;;;;;5079998;28;20043;-76
2022/01/25 02:24:36;;;;;;;50.70;35.85;;;5.40;99.90;;;;;;5070353;28;20039;-76
2022/01/25 02:27:03;;;;;;;54.50;37.78;;;5.40;99.90;;;;;;5080974;28;20032;-76
2022/01/25 02:29:29;;;;;;;52.42;38.35;;;5.40;99.90;;;;;;5073538;28;20171;-76
2022/01/25 02:31:56;;;;;;;53.83;38.10;;;5.40;99.90;;;;;;5054763;28;20496;-76
2022/01/25 02:34:22;;;;;;;50.97;37.10;;;5.40;99.90;;;;;;5072738;28;20037;-76
2022/01/25 02:36:59;;;;;;;54.72;36.17;;;5.40;99.90;;;;;;5058433;28;20031;-76
2022/01/25 02:39:25;;;;;;;50.45;35.78;;;5.40;99.90;;;;;;5053401;28;20408;-76
2022/01/25 02:41:54;;;;;;;51.92;36.55;;;5.40;99.90;;;;;;5055624;28;20029;-76
2022/01/25 02:44:24;;;;;;;50.25;35.00;;;5.40;99.90;;;;;;5055619;28;20123;-76
2022/01/25 02:49:17;;;;;;;51.13;36.53;;;5.30;99.90;;;;;;5070728;28;20032;-76
2022/01/25 02:51:45;;;;;;;52.50;35.97;;;5.40;99.90;;;;;;5077966;28;20028;-76
2022/01/25 02:54:12;;;;;;;51.67;35.37;;;5.40;99.90;;;;;;5071128;28;20021;-76
2022/01/25 02:56:39;;;;;;;54.88;37.25;;;5.40;99.90;;;;;;5082316;28;20028;-76
2022/01/25 02:59:06;;;;;;;52.63;37.20;;;5.40;99.90;;;;;;5081429;28;20033;-76
2022/01/25 03:01:34;;;;;;;52.33;37.05;;;5.40;99.90;;;;;;5067688;28;20024;-76
2022/01/25 03:04:00;;;;;;;54.08;38.05;;;5.40;99.90;;;;;;5060216;28;20481;-76
2022/01/25 03:06:25;;;;;;;59.10;36.65;;;5.40;99.90;;;;;;5077204;28;20032;-76
2022/01/25 03:08:53;;;;;;;48.22;33.08;;;5.40;99.90;;;;;;5078580;28;20028;-76
2022/01/25 03:11:21;;;;;;;47.97;34.33;;;5.40;99.90;;;;;;5081513;28;20037;-76
2022/01/25 03:13:54;;;;;;;46.60;32.97;;;5.40;99.90;;;;;;5052880;28;20091;-76
2022/01/25 03:16:35;;;;;;;49.25;33.15;;;5.40;99.90;;;;;;5079902;28;20021;-76
2022/01/25 03:19:26;;;;;;;55.67;37.70;;;5.40;99.90;;;;;;5079590;28;20025;-76
2022/01/25 03:21:49;;;;;;;58.72;38.70;;;5.40;99.90;;;;;;5077562;28;20028;-77
2022/01/25 03:24:15;;;;;;;54.33;37.75;;;5.40;99.90;;;;;;5079435;28;20166;-79
2022/01/25 03:26:40;;;;;;;54.70;38.05;;;5.40;99.90;;;;;;5056099;28;20039;-80
2022/01/25 03:29:06;;;;;;;58.78;38.60;;;5.50;99.90;;;;;;5052184;28;20075;-76
2022/01/25 03:31:32;;;;;;;56.25;38.67;;;5.40;99.90;;;;;;5082995;28;20028;-76
2022/01/25 03:33:58;;;;;;;52.15;34.45;;;5.50;99.90;;;;;;5076001;28;20039;-76
2022/01/25 03:36:24;;;;;;;42.97;31.38;;;5.50;99.90;;;;;;5065012;28;20491;-76
2022/01/25 03:38:50;;;;;;;49.72;34.33;;;5.50;99.90;;;;;;5075270;28;20037;-76
2022/01/25 03:41:16;;;;;;;50.45;35.92;;;5.50;99.90;;;;;;5060669;28;20079;-76
2022/01/25 03:43:44;;;;;;;44.42;33.97;;;5.40;99.90;;;;;;5057859;28;20473;-76
2022/01/25 03:46:19;;;;;;;49.30;35.30;;;5.40;99.90;;;;;;5079196;28;20029;-76
2022/01/25 03:51:29;;;;;;;52.25;36.20;;;5.40;99.90;;;;;;5076671;28;20443;-76
2022/01/25 03:53:54;;;;;;;53.55;36.83;;;5.40;99.90;;;;;;5061952;28;20040;-76
2022/01/25 03:56:22;;;;;;;53.70;38.90;;;5.40;99.90;;;;;;5077642;28;20040;-76
2022/01/25 03:58:48;;;;;;;54.67;39.85;;;5.40;99.90;;;;;;5083288;28;20032;-76
2022/01/25 04:01:14;;;;;;;54.38;39.95;;;5.40;99.90;;;;;;5054011;28;20465;-76
2022/01/25 04:03:46;;;;;;;55.03;40.28;;;5.40;99.90;;;;;;5071810;28;20079;-76
2022/01/25 04:06:17;;;;;;;60.05;39.85;;;5.40;99.90;;;;;;5079473;28;20051;-76
2022/01/25 04:08:43;;;;;;;53.40;38.15;;;5.40;99.90;;;;;;5059789;28;20059;-79
2022/01/25 04:11:08;;;;;;;53.78;39.40;;;5.40;99.90;;;;;;5072888;28;20033;-80
2022/01/25 04:13:34;;;;;;;57.78;40.83;;;5.40;99.90;;;;;;5059844;28;20036;-80
2022/01/25 04:16:08;;;;;;;55.90;40.38;;;5.40;99.90;;;;;;5077705;28;20085;-80
2022/01/25 04:18:47;;;;;;;55.90;40.63;;;5.40;99.90;;;;;;5082851;28;20358;-80
2022/01/25 04:21:27;;;;;;;53.67;38.22;;;5.50;99.90;;;;;;5076465;28;20035;-80
2022/01/25 04:26:37;;;;;;;58.05;42.47;;;5.40;99.90;;;;;;5070868;28;20389;-79
2022/01/25 04:29:04;;;;;;;56.97;40.60;;;5.50;99.90;;;;;;5079896;28;20044;-80
2022/01/25 04:31:29;;;;;;;56.35;39.45;;;5.50;99.90;;;;;;5080434;28;20036;-80
2022/01/25 04:50:28;;;;;;;53.13;38.60;;;5.40;99.90;;;;;;5070324;28;20036;-80
2022/01/25 04:53:13;;;;;;;57.88;40.20;;;5.40;99.90;;;;;;5070368;28;20120;-79
2022/01/25 04:55:55;;;;;;;50.90;37.17;;;5.40;99.90;;;;;;5059013;28;20028;-80
2022/01/25 04:58:32;;;;;;;49.50;37.42;;;5.40;99.90;;;;;;5069705;28;20036;-80
2022/01/25 05:00:58;;;;;;;49.33;35.90;;;5.40;99.90;;;;;;5078795;28;20118;-80
2022/01/25 05:03:29;;;;;;;47.20;33.28;;;5.40;99.90;;;;;;5069172;28;20481;-80
2022/01/25 05:06:06;;;;;;;45.33;34.08;;;5.40;99.90;;;;;;5063031;28;20476;-80
2022/01/25 05:08:37;;;;;;;48.88;35.13;;;5.30;99.90;;;;;;5068237;28;20550;-80
2022/01/25 05:11:40;;;;;;;51.15;35.65;;;5.30;99.90;;;;;;5070264;28;20489;-79
2022/01/25 05:16:30;;;;;;;46.70;34.70;;;5.40;99.90;;;;;;5075958;28;20038;-80
2022/01/25 05:22:04;;;;;;;48.15;36.05;;;5.40;99.90;;;;;;5079288;28;20089;-79
2022/01/25 05:22:06;;;;;;;48.40;37.20;;;5.30;99.90;;;;;;5068142;28;20568;-80
2022/01/25 05:24:44;;;;;;;44.03;33.97;;;5.30;99.90;;;;;;5069005;28;20068;-77
2022/01/25 05:27:11;;;;;;;51.85;36.42;;;5.30;99.90;;;;;;5085071;28;20024;-76
2022/01/25 05:29:37;;;;;;;56.30;38.92;;;5.30;99.90;;;;;;5073791;28;20086;-76
2022/01/25 05:32:03;;;;;;;48.83;35.88;;;5.30;99.90;;;;;;5075977;28;20086;-76
2022/01/25 05:34:29;;;;;;;57.50;38.90;;;5.30;99.90;;;;;;5060979;28;20101;-76
2022/01/25 05:36:55;;;;;;;51.17;38.53;;;5.30;99.90;;;;;;5075407;28;20040;-76
2022/01/25 05:39:29;;;;;;;52.40;37.22;;;5.20;99.90;;;;;;5074471;28;20465;-76
2022/01/25 05:42:13;;;;;;;46.80;36.13;;;5.20;99.90;;;;;;5079475;28;20021;-75
2022/01/25 05:47:32;;;;;;;50.45;34.47;;;5.10;99.90;;;;;;5050354;28;20119;-76
2022/01/25 05:49:59;;;;;;;45.55;33.17;;;5.20;99.90;;;;;;5067742;28;20032;-76
2022/01/25 05:52:25;;;;;;;42.80;32.28;;;5.20;99.90;;;;;;5078963;28;20072;-76
2022/01/25 05:54:51;;;;;;;50.13;34.53;;;5.20;99.90;;;;;;5071953;28;20036;-76
2022/01/25 05:57:18;;;;;;;49.75;35.30;;;5.20;99.90;;;;;;5070907;28;20029;-76
2022/01/25 05:59:43;;;;;;;50.83;35.47;;;5.20;99.90;;;;;;5083123;28;20089;-76
2022/01/25 06:02:09;;;;;;;46.72;34.60;;;5.30;99.90;;;;;;5082438;28;20032;-76
2022/01/25 06:04:35;;;;;;;53.03;36.70;;;5.20;99.90;;;;;;5057287;28;20028;-76
2022/01/25 06:07:00;;;;;;;49.78;36.63;;;5.20;99.90;;;;;;5081019;28;20032;-76
2022/01/25 06:09:26;;;;;;;46.30;34.88;;;5.20;99.90;;;;;;5070579;28;20049;-76
2022/01/25 06:11:53;;;;;;;45.88;35.38;;;5.20;99.90;;;;;;5055114;28;20043;-76
2022/01/25 06:14:19;;;;;;;48.72;35.45;;;5.20;99.90;;;;;;5085116;28;20055;-76
2022/01/25 06:16:45;;;;;;;54.08;39.13;;;5.20;99.90;;;;;;5081453;28;20054;-77
2022/01/25 06:19:11;;;;;;;54.70;37.25;;;5.20;99.90;;;;;;5073729;28;20110;-77
2022/01/25 06:21:37;;;;;;;61.45;39.28;;;5.20;99.90;;;;;;5071691;28;20131;-76
2022/01/25 06:24:03;;;;;;;53.40;39.75;;;5.20;99.90;;;;;;5080549;28;20028;-76
2022/01/25 06:26:28;;;;;;;57.15;40.25;;;5.20;99.90;;;;;;5100775;28;20056;-77
2022/01/25 06:28:54;;;;;;;53.13;38.75;;;5.20;99.90;;;;;;5100578;28;20044;-77
2022/01/25 06:31:20;;;;;;;57.70;40.20;;;5.20;99.90;;;;;;5096551;28;20028;-77
2022/01/25 06:33:46;;;;;;;53.33;39.45;;;5.20;99.90;;;;;;5076273;28;20039;-76
2022/01/25 06:36:12;;;;;;;55.47;40.80;;;5.20;99.90;;;;;;5073132;28;20037;-77
2022/01/25 06:38:39;;;;;;;55.53;40.17;;;5.20;99.90;;;;;;5064108;28;20032;-77
2022/01/25 06:41:04;;;;;;;56.08;40.95;;;5.20;99.90;;;;;;5061958;28;20064;-77
2022/01/25 06:43:30;;;;;;;53.53;38.75;;;5.20;99.90;;;;;;5072230;28;20056;-77
2022/01/25 06:46:00;;;;;;;56.03;41.65;;;5.20;99.90;;;;;;5054252;28;20469;-77
2022/01/25 06:48:26;;;;;;;51.92;37.95;;;5.20;99.90;;;;;;5066080;28;20091;-77
2022/01/25 06:50:52;;;;;;;52.03;39.17;;;5.20;99.90;;;;;;5087283;28;20428;-77
2022/01/25 06:53:17;;;;;;;53.63;39.03;;;5.30;99.90;;;;;;5064530;28;20086;-77
2022/01/25 06:55:43;;;;;;;55.22;41.10;;;5.20;99.90;;;;;;5070907;28;20525;-77
2022/01/25 06:58:09;;;;;;;58.03;40.80;;;5.20;99.90;;;;;;5054161;28;20119;-77
2022/01/25 07:00:36;;;;;;;58.95;40.40;;;5.20;99.90;;;;;;5066791;28;20419;-77
2022/01/25 07:03:02;;;;;;;57.78;39.03;;;5.20;99.90;;;;;;5073135;28;20024;-77
2022/01/25 07:05:28;;;;;;;57.85;40.30;;;5.20;99.90;;;;;;5079914;28;20063;-77
2022/01/25 07:07:54;;;;;;;54.33;40.05;;;5.20;99.90;;;;;;5071634;28;20408;-77
2022/01/25 07:10:21;;;;;;;58.17;40.63;;;5.20;99.90;;;;;;5053446;28;20064;-79
2022/01/25 07:12:46;;;;;;;57.70;41.35;;;5.20;99.90;;;;;;5089171;28;20115;-79
2022/01/25 07:15:13;;;;;;;56.88;40.63;;;5.20;99.90;;;;;;5081085;28;20112;-79
2022/01/25 07:17:39;;;;;;;61.17;42.88;;;5.20;99.90;;;;;;5078893;28;20031;-79
2022/01/25 07:20:06;;;;;;;62.90;41.92;;;5.20;99.90;;;;;;5075017;28;20060;-79
2022/01/25 07:22:33;;;;;;;62.08;42.80;;;5.20;99.90;;;;;;5070044;28;20048;-79
2022/01/25 07:24:59;;;;;;;56.72;40.28;;;5.20;99.90;;;;;;5085487;28;20353;-79
2022/01/25 07:27:25;;;;;;;57.72;39.75;;;5.20;99.90;;;;;;5083510;28;20465;-76
2022/01/25 07:29:51;;;;;;;61.38;41.13;;;5.20;99.90;;;;;;5079328;28;20455;-76
2022/01/25 07:32:16;;;;;;;56.83;39.95;;;5.20;99.90;;;;;;5078371;28;20471;-76
2022/01/25 07:34:42;;;;;;;65.38;43.67;;;5.20;99.90;;;;;;5054178;28;20041;-76
2022/01/25 07:37:08;;;;;;;66.00;42.88;;;5.10;99.90;;;;;;5071383;28;20082;-76
2022/01/25 07:39:34;;;;;;;67.53;42.95;;;5.00;99.90;;;;;;5082192;28;20381;-76
2022/01/25 07:41:59;;;;;;;65.50;45.05;;;5.10;99.90;;;;;;5059890;28;20035;-76
2022/01/25 07:44:32;;;;;;;69.45;46.33;;;5.00;99.90;;;;;;5091299;28;20028;-76
2022/01/25 07:46:58;;;;;;;66.20;42.40;;;5.10;99.90;;;;;;5070903;28;20036;-76
2022/01/25 07:49:25;;;;;;;58.42;39.90;;;5.00;99.90;;;;;;5057393;28;20033;-76
2022/01/25 07:51:51;;;;;;;58.08;37.20;;;5.00;99.90;;;;;;5076630;28;20119;-76
2022/01/25 07:54:17;;;;;;;60.45;40.13;;;5.00;99.90;;;;;;5058957;28;20032;-76
2022/01/25 07:56:43;;;;;;;67.25;42.47;;;5.00;99.90;;;;;;5070331;28;20465;-76
2022/01/25 07:59:08;;;;;;;67.03;43.70;;;5.00;99.90;;;;;;5069504;28;20103;-77
2022/01/25 08:01:34;;;;;;;64.68;41.80;;;4.90;99.90;;;;;;5071736;28;20032;-77
2022/01/25 08:04:00;;;;;;;64.90;42.28;;;4.90;99.90;;;;;;5069695;28;20024;-77
2022/01/25 08:06:26;;;;;;;68.53;43.25;;;4.90;99.90;;;;;;5073096;28;20090;-77
2022/01/25 08:08:52;;;;;;;67.80;42.83;;;4.90;99.90;;;;;;5070607;28;20032;-77
2022/01/25 08:11:19;;;;;;;73.47;44.63;;;5.00;99.90;;;;;;5052598;28;20037;-77
2022/01/25 08:13:48;;;;;;;68.32;43.22;;;5.00;99.90;;;;;;5069403;28;20044;-77
2022/01/25 08:16:15;;;;;;;78.13;46.58;;;4.90;99.90;;;;;;5074828;28;20039;-77
2022/01/25 08:18:41;;;;;;;72.53;43.97;;;4.90;99.90;;;;;;5061629;28;20028;-81
2022/01/25 08:21:06;;;;;;;75.30;44.42;;;4.90;99.90;;;;;;5070153;28;20050;-81
2022/01/25 08:23:32;;;;;;;76.82;44.05;;;4.90;99.90;;;;;;5052029;28;20393;-81
2022/01/25 08:25:59;;;;;;;73.88;44.13;;;4.90;99.90;;;;;;5070010;28;20045;-81
2022/01/25 08:28:24;;;;;;;84.25;47.95;;;5.00;99.90;;;;;;5051906;28;20455;-81
2022/01/25 08:30:50;;;;;;;74.47;46.22;;;5.00;99.90;;;;;;5053309;28;20032;-80
2022/01/25 08:33:16;;;;;;;70.45;43.75;;;5.10;99.90;;;;;;5052047;28;20497;-81
2022/01/25 08:35:42;;;;;;;73.20;45.50;;;5.00;99.90;;;;;;5050292;28;20033;-80
2022/01/25 08:38:07;;;;;;;78.45;47.33;;;5.10;99.90;;;;;;5071306;28;20484;-81
2022/01/25 08:40:34;;;;;;;73.95;43.47;;;5.10;99.90;;;;;;5079207;28;20044;-81
2022/01/25 08:43:01;;;;;;;79.82;45.08;;;5.20;99.90;;;;;;5070015;28;20025;-81
2022/01/25 08:45:26;;;;;;;82.57;46.88;;;5.10;99.90;;;;;;5051404;28;20404;-81
2022/01/25 08:47:52;;;;;;;71.60;44.15;;;5.10;99.90;;;;;;5051915;28;20036;-81
2022/01/25 08:50:18;;;;;;;79.50;45.85;;;5.10;99.90;;;;;;5066141;28;20043;-81
2022/01/25 08:52:44;;;;;;;77.75;45.30;;;5.10;99.90;;;;;;5088858;28;20386;-81
2022/01/25 08:55:09;;;;;;;68.70;42.30;;;5.10;99.90;;;;;;5088319;28;20024;-81
2022/01/25 08:57:35;;;;;;;73.57;44.10;;;5.10;99.90;;;;;;5069392;28;20041;-81
2022/01/25 09:00:03;;;;;;;74.55;46.55;;;5.10;99.90;;;;;;5051377;28;20081;-81
2022/01/25 09:02:29;;;;;;;69.95;45.17;;;5.00;99.90;;;;;;5069295;28;20052;-81
2022/01/25 09:04:55;;;;;;;75.10;46.70;;;5.00;99.90;;;;;;5062070;28;20040;-81
2022/01/25 09:07:20;;;;;;;83.03;48.50;;;5.00;99.90;;;;;;5088555;28;20035;-78
2022/01/25 09:09:46;;;;;;;82.45;50.83;;;5.10;99.90;;;;;;5053638;28;20480;-78
2022/01/25 09:12:12;;;;;;;81.63;46.40;;;5.10;99.90;;;;;;5032102;28;20500;-81
2022/01/25 09:14:38;;;;;;;75.78;46.58;;;5.10;99.90;;;;;;5073440;28;20083;-81
2022/01/25 09:17:07;;;;;;;78.50;46.40;;;5.10;99.90;;;;;;5051097;28;20388;-80
2022/01/25 09:19:34;;;;;;;76.32;46.80;;;5.10;99.90;;;;;;5067549;28;20488;-79
2022/01/25 09:22:00;;;;;;;83.03;48.10;;;5.10;99.90;;;;;;5068548;28;20021;-79
2022/01/25 09:24:26;;;;;;;79.32;49.13;;;5.10;99.90;;;;;;5067274;28;20423;-79
2022/01/25 09:26:51;;;;;;;78.35;49.53;;;5.10;99.90;;;;;;5067908;28;20028;-77
2022/01/25 09:29:17;;;;;;;82.72;48.85;;;5.10;99.90;;;;;;5063321;28;20052;-77
2022/01/25 09:31:43;;;;;;;79.55;48.92;;;5.10;99.90;;;;;;5068931;28;20068;-77
2022/01/25 09:34:08;;;;;;;78.00;47.05;;;5.10;99.90;;;;;;5061763;28;20081;-76
2022/01/25 09:36:34;;;;;;;77.07;46.33;;;5.10;99.90;;;;;;5050341;28;20037;-77
2022/01/25 09:39:00;;;;;;;74.75;48.47;;;5.20;99.90;;;;;;5059613;28;20081;-76
2022/01/25 09:41:27;;;;;;;78.90;49.83;;;5.20;99.90;;;;;;5051075;28;20033;-77
2022/01/25 09:43:52;;;;;;;81.30;47.72;;;5.20;99.90;;;;;;5067989;28;20025;-77
2022/01/25 09:46:18;;;;;;;86.50;50.25;;;5.30;99.90;;;;;;5068194;28;20063;-77
2022/01/25 09:48:44;;;;;;;82.82;51.17;;;5.30;99.90;;;;;;5063315;28;20035;-78
2022/01/25 09:51:11;;;;;;;84.15;50.38;;;5.30;99.90;;;;;;5051872;28;20037;-78
2022/01/25 09:53:38;;;;;;;82.28;51.03;;;5.30;99.90;;;;;;5068028;28;20111;-78
2022/01/25 09:56:05;;;;;;;81.53;49.28;;;5.30;99.90;;;;;;5051346;28;20032;-78
2022/01/25 09:58:30;;;;;;;75.32;47.15;;;5.30;99.90;;;;;;5055084;28;20032;-78
2022/01/25 10:01:00;;;;;;;75.30;47.88;;;5.30;99.90;;;;;;5073111;28;20090;-78
2022/01/25 10:03:31;;;;;;;81.25;51.03;;;5.30;99.90;;;;;;5069466;28;20086;-78
2022/01/25 10:06:00;;;;;;;90.53;53.40;;;5.40;99.90;;;;;;5058842;28;20792;-78
2022/01/25 10:08:30;;;;;;;;;;;5.40;99.90;;;;;;5054837;28;20551;-77
2022/01/25 10:10:57;;;;;;;86.35;52.55;;;5.40;99.90;;;;;;5064766;28;19908;-77
2022/01/25 10:13:24;;;;;;;91.95;53.22;;;5.40;99.90;;;;;;5065371;28;20416;-78
2022/01/25 10:16:15;;;;;;;84.15;53.60;;;5.40;99.90;;;;;;5064845;28;20113;-76
2022/01/25 10:18:50;;;;;;;97.07;56.33;;;5.40;99.90;;;;;;5065057;28;20032;-76
2022/01/25 10:21:25;;;;;;;96.65;56.72;;;5.40;99.90;;;;;;5063853;28;20381;-76
2022/01/25 10:24:04;;;;;;;85.65;52.83;;;5.40;99.90;;;;;;5063479;28;20037;-76
2022/01/25 10:26:57;;;;;;;88.45;51.35;;;5.40;99.90;;;;;;5063512;28;20918;-76
2022/01/25 10:29:30;;;;;;;83.53;50.97;;;5.40;99.90;;;;;;5061326;28;20072;-76
2022/01/25 10:32:02;;;;;;;83.13;50.70;;;5.50;99.90;;;;;;5062796;28;20032;-76
2022/01/25 10:34:41;;;;;;;83.93;49.65;;;5.50;99.90;;;;;;5063517;28;20033;-75
2022/01/25 10:37:09;;;;;;;85.13;49.45;;;5.50;99.90;;;;;;5064549;28;20024;-76
2022/01/25 10:39:39;;;;;;;77.03;48.15;;;5.60;99.90;;;;;;5064878;28;20029;-76
2022/01/25 10:42:07;;;;;;;79.82;46.55;;;5.60;99.90;;;;;;5062990;28;20032;-76
2022/01/25 10:45:09;;;;;;;76.07;46.97;;;5.70;99.90;;;;;;5064871;28;20036;-75
2022/01/25 10:47:49;;;;;;;70.32;44.17;;;5.70;99.90;;;;;;5027339;28;20037;-76
2022/01/25 10:50:16;;;;;;;;;;;5.70;99.90;;;;;;5068713;28;20110;-76
2022/01/25 10:52:42;;;;;;;69.00;44.58;;;5.70;99.90;;;;;;5082245;28;20403;-76
2022/01/25 10:55:08;;;;;;;72.00;45.97;;;5.70;99.90;;;;;;5082480;28;20036;-76
2022/01/25 10:57:34;;;;;;;69.30;42.97;;;5.70;99.90;;;;;;5081636;28;20037;-76
2022/01/25 11:00:07;;;;;;;72.15;44.95;;;5.70;99.90;;;;;;5079890;28;20472;-76
2022/01/25 11:02:34;;;;;;;67.00;43.65;;;5.80;99.90;;;;;;5085975;28;20475;-76
2022/01/25 11:05:09;;;;;;;67.55;43.67;;;5.80;99.90;;;;;;5084329;28;20120;-77
2022/01/25 11:07:40;;;;;;;76.90;47.55;;;5.80;99.90;;;;;;5080957;28;20017;-76
2022/01/25 11:10:08;;;;;;;72.50;45.13;;;5.80;99.90;;;;;;5082782;28;20506;-76
2022/01/25 11:12:39;;;;;;;74.63;46.03;;;5.80;99.90;;;;;;5071807;28;20037;-75
2022/01/25 11:15:06;;;;;;;70.95;46.63;;;5.80;99.90;;;;;;5070078;28;20529;-75
2022/01/25 11:17:33;;;;;;;70.00;44.85;;;5.80;99.90;;;;;;5069960;28;20064;-75
2022/01/25 11:20:01;;;;;;;70.15;44.15;;;5.90;99.90;;;;;;5071298;28;20036;-75
2022/01/25 11:22:27;;;;;;;75.70;43.58;;;5.80;99.90;;;;;;5072943;28;20036;-75
2022/01/25 11:24:59;;;;;;;71.47;47.13;;;5.90;99.90;;;;;;5071817;28;20036;-75
2022/01/25 11:27:28;;;;;;;72.35;46.95;;;5.90;99.90;;;;;;5083329;28;20384;-75
2022/01/25 11:29:55;;;;;;;;;;;5.90;99.90;;;;;;5091036;28;20047;-75
2022/01/25 11:32:25;;;;;;;79.13;47.60;;;5.90;99.90;;;;;;5088867;28;20284;-75
2022/01/25 11:34:53;;;;;;;69.82;45.50;;;5.90;99.90;;;;;;5089871;28;20502;-75
2022/01/25 11:37:19;;;;;;;74.05;45.63;;;5.90;99.90;;;;;;5091609;28;20024;-75
2022/01/25 11:39:47;;;;;;;74.65;47.90;;;5.90;99.90;;;;;;5072469;28;20473;-75
2022/01/25 11:42:23;;;;;;;70.00;43.72;;;6.00;99.90;;;;;;5071129;28;20024;-75
2022/01/25 11:44:54;;;;;;;73.25;46.42;;;6.00;99.90;;;;;;5070758;28;20480;-76
2022/01/25 11:47:22;;;;;;;74.22;45.72;;;6.00;99.90;;;;;;5070841;28;20099;-76
2022/01/25 11:49:52;;;;;;;67.00;43.25;;;6.00;99.90;;;;;;5069391;28;20028;-76
2022/01/25 11:52:18;;;;;;;78.95;45.90;;;6.00;99.90;;;;;;5070998;28;20035;-75
2022/01/25 11:54:44;;;;;;;76.88;45.15;;;6.10;99.90;;;;;;5069125;28;20037;-76
2022/01/25 11:57:25;;;;;;;73.40;46.72;;;6.00;99.90;;;;;;5071450;28;20036;-75
2022/01/25 12:00:00;;;;;;;67.97;44.55;;;6.00;99.90;;;;;;5089541;28;20154;-77
2022/01/25 12:02:42;;;;;;;69.78;46.17;;;6.00;99.90;;;;;;5074933;28;20146;-78
2022/01/25 12:05:14;;;;;;;71.82;46.10;;;6.00;99.90;;;;;;5049155;28;20032;-78
2022/01/25 12:08:11;;;;;;;74.65;45.65;;;6.00;99.90;;;;;;5050675;28;20036;-78
2022/01/25 12:10:40;;;;;;;77.53;48.83;;;6.00;99.90;;;;;;5058482;28;20026;-78
2022/01/25 12:13:10;;;;;;;;;;;6.00;99.90;;;;;;5071093;28;20032;-78
2022/01/25 12:15:35;;;;;;;78.63;46.72;;;5.90;99.90;;;;;;5068839;28;19916;-77
2022/01/25 12:18:02;;;;;;;70.95;44.67;;;5.90;99.90;;;;;;5068868;28;20086;-77
2022/01/25 12:20:28;;;;;;;67.55;45.08;;;5.90;99.90;;;;;;5069005;28;20258;-77
2022/01/25 12:23:18;;;;;;;72.68;46.35;;;5.90;99.90;;;;;;5068999;28;20021;-77
2022/01/25 12:26:07;;;;;;;65.10;43.15;;;6.00;99.90;;;;;;5068983;28;20062;-77
2022/01/25 12:28:37;;;;;;;70.43;44.13;;;6.00;99.90;;;;;;5069762;28;20109;-77
2022/01/25 12:31:17;;;;;;;68.97;43.95;;;5.90;99.90;;;;;;5068715;28;20481;-77
2022/01/25 12:33:45;;;;;;;74.55;45.67;;;5.90;99.90;;;;;;5068600;28;20428;-77
2022/01/25 12:36:11;;;;;;;70.00;46.47;;;5.90;99.90;;;;;;5052436;28;20039;-77
2022/01/25 12:38:43;;;;;;;105.85;64.22;;;5.90;99.90;;;;;;5051908;28;20033;-77
2022/01/25 12:41:13;;;;;;;167.18;87.03;;;5.90;99.90;;;;;;5068568;28;20039;-77
2022/01/25 12:43:44;;;;;;;107.00;62.97;;;6.00;99.90;;;;;;5069516;28;20089;-77
2022/01/25 12:46:13;;;;;;;84.78;51.33;;;5.90;99.90;;;;;;5051915;28;20043;-77
2022/01/25 12:48:42;;;;;;;79.05;50.85;;;5.90;99.90;;;;;;5069825;28;20032;-77
2022/01/25 12:51:11;;;;;;;81.30;50.63;;;6.00;99.90;;;;;;5068539;28;20029;-77
2022/01/25 12:53:39;;;;;;;;;;;6.00;99.90;;;;;;5068653;28;20032;-77
2022/01/25 12:56:11;;;;;;;76.70;48.13;;;6.00;99.90;;;;;;5067944;28;19908;-77
2022/01/25 12:58:38;;;;;;;76.47;48.88;;;6.00;99.90;;;;;;5069408;28;20048;-77
2022/01/25 13:01:10;;;;;;;83.43;51.33;;;6.00;99.90;;;;;;5069510;28;20036;-77
2022/01/25 13:03:50;;;;;;;76.03;48.42;;;6.00;99.90;;;;;;5069532;28;20055;-77
2022/01/25 13:06:18;;;;;;;74.03;47.75;;;6.00;99.90;;;;;;5067901;28;20035;-77
2022/01/25 13:08:56;;;;;;;75.80;46.70;;;6.00;99.90;;;;;;5068302;28;20039;-77
2022/01/25 13:17:15;;;;;;;65.43;43.88;;;6.00;99.90;;;;;;5069471;28;20051;-77
2022/01/25 13:19:46;;;;;;;67.53;43.08;;;5.90;99.90;;;;;;5069507;28;20020;-77
2022/01/25 13:22:15;;;;;;;70.45;45.00;;;5.90;99.90;;;;;;5069103;28;20025;-77
2022/01/25 13:24:55;;;;;;;65.33;42.60;;;5.90;99.90;;;;;;5069257;28;20017;-77
2022/01/25 13:27:21;;;;;;;67.28;42.50;;;5.90;99.90;;;;;;5084671;28;20032;-75
2022/01/25 13:32:32;;;;;;;76.03;46.08;;;6.00;99.90;;;;;;5069587;28;20420;-77
2022/01/25 13:38:05;;;;;;;73.57;45.75;;;6.00;99.90;;;;;;5069199;28;20473;-77
2022/01/25 13:40:44;;;;;;;73.55;47.05;;;6.00;99.90;;;;;;5067726;28;20025;-78
2022/01/25 13:43:31;;;;;;;71.55;47.40;;;6.10;99.90;;;;;;5067672;28;20492;-78
2022/01/25 13:45:59;;;;;;;74.20;47.95;;;6.00;99.90;;;;;;5068938;28;20044;-78
2022/01/25 13:48:27;;;;;;;76.80;48.50;;;6.10;99.90;;;;;;5069361;28;20037;-78
2022/01/25 13:50:58;;;;;;;79.00;49.65;;;6.10;99.90;;;;;;5068981;28;20032;-78
2022/01/25 13:53:25;;;;;;;73.78;48.08;;;6.10;99.90;;;;;;5067432;28;20036;-78
2022/01/25 13:55:53;;;;;;;76.68;49.15;;;6.10;99.90;;;;;;5067271;28;20036;-78
2022/01/25 13:58:21;;;;;;;77.10;51.00;;;6.10;99.90;;;;;;5067724;28;20028;-78
2022/01/25 14:00:49;;;;;;;77.18;50.22;;;6.00;99.90;;;;;;5068926;28;20024;-78
2022/01/25 14:03:18;;;;;;;79.45;49.90;;;6.00;99.90;;;;;;5067738;28;20129;-78
2022/01/25 14:05:44;;;;;;;76.05;48.15;;;6.10;99.90;;;;;;5067738;28;20556;-78
2022/01/25 14:08:10;;;;;;;75.93;47.75;;;6.10;99.90;;;;;;5068698;28;20105;-78
2022/01/25 14:10:36;;;;;;;78.22;48.45;;;6.10;99.90;;;;;;5067104;28;20093;-78
2022/01/25 14:21:57;;;;;;;79.63;50.60;;;6.20;99.90;;;;;;5063149;28;20562;-77
2022/01/25 14:24:30;;;;;;;82.60;49.95;;;6.20;99.90;;;;;;5072637;28;20024;-77
2022/01/25 14:26:58;;;;;;;79.82;49.83;;;6.20;99.90;;;;;;5072475;28;20024;-77
2022/01/25 14:29:24;;;;;;;79.00;49.35;;;6.20;99.90;;;;;;5050733;28;20467;-77
2022/01/25 14:31:50;;;;;;;79.20;49.28;;;6.20;99.90;;;;;;5052976;28;20444;-77
2022/01/25 14:34:18;;;;;;;79.35;47.28;;;6.10;99.90;;;;;;5052372;28;20033;-77
2022/01/25 14:36:47;;;;;;;80.43;50.35;;;6.20;99.90;;;;;;5051176;28;20415;-77
2022/01/25 14:39:15;;;;;;;76.40;48.53;;;6.10;99.90;;;;;;5052538;28;20021;-78
2022/01/25 14:41:41;;;;;;;85.65;48.90;;;6.10;99.90;;;;;;5052253;28;20029;-79
2022/01/25 14:44:10;;;;;;;77.97;48.88;;;6.10;99.90;;;;;;5071247;28;20111;-78